Portada
METAR-TAF:

METAR-TAF

Aeroports :

Dübendorf, Suïssa

latitud: 47-23-55N, longitud: 8-38-53E, altitud: 448 m

Observació

L'informe es va fer fa 29 minuts, a les 23:20 UTC
Vent 3 kt del Est, variant entre Nord-Est i Sud/Sud-Est
Temperatura 3°C
Humitat 87%
Pressió 1018 hPa
Visibilitat: 9000 m
Cel ennuvolat a una alçada de 4100 ft
Cel ennuvolat a una alçada de 4700 ft
pluja

METAR: LSMD 062320Z AUTO 09003KT 050V150 9000NDV -RA BKN041 BKN047 03/01 Q1018 RMK

Hora: 00:49 (23:49 UTC)


TAF: manca

Observacions i pronòstics meteorològics de més de 4000 aeroports (METAR i TAF).

Les estacions disponibles són els punts grocs i vermells al mapa.

Posi el ratolí al punt desitjat per veure el nom de l'estació.

Feu clic per veure les observacions i els pronòstics meteorològics.

Per canviar el mapa: feu clic els botons verds amb una creu de color negre per apropar; al botó verd amb un guió per allunyar la imatge; o en les fletxes verdes per a mapes adjacents.


METAR-TAF: